Time;durP1;ratioP1;P1;durP2;ratioP2;P2;SDS_P1;SDS_P2;PMS_P1;PMS_P2;Temp;Humidity;BMP_temperature;BMP_pressure;BME280_temperature;BME280_humidity;BME280_pressure;Samples;Min_cycle;Max_cycle;Signal;HPM_P1;HPM_P2
2023/12/20 00:02:18;;;;;;;0.50;0.50;;;;;;;4.33;100.00;99256.69;5087657;28;20040;-59
2023/12/20 00:04:45;;;;;;;0.45;0.45;;;;;;;4.28;100.00;99263.63;5099878;28;20505;-58
2023/12/20 00:07:13;;;;;;;0.52;0.52;;;;;;;4.33;100.00;99271.78;5078555;28;20062;-60
2023/12/20 00:09:40;;;;;;;0.40;0.40;;;;;;;4.33;100.00;99261.19;5090582;28;20052;-58
2023/12/20 00:12:09;;;;;;;0.40;0.40;;;;;;;4.39;100.00;99264.88;5096605;28;20919;-58
2023/12/20 00:14:36;;;;;;;0.40;0.40;;;;;;;4.37;100.00;99264.25;5092755;28;20114;-58
2023/12/20 00:17:04;;;;;;;0.50;0.50;;;;;;;4.39;100.00;99270.97;5071648;28;20051;-60
2023/12/20 00:19:31;;;;;;;0.40;0.40;;;;;;;4.48;100.00;99271.63;5093851;28;20058;-60
2023/12/20 00:21:59;;;;;;;0.40;0.40;;;;;;;4.56;100.00;99273.28;5090239;28;20044;-60
2023/12/20 00:24:27;;;;;;;0.50;0.50;;;;;;;4.57;100.00;99261.63;5089453;28;20043;-59
2023/12/20 00:26:54;;;;;;;0.52;0.52;;;;;;;4.59;100.00;99246.31;5093611;28;20092;-59
2023/12/20 00:29:21;;;;;;;0.40;0.40;;;;;;;4.52;100.00;99249.78;5092451;28;20056;-58
2023/12/20 00:31:48;;;;;;;0.40;0.40;;;;;;;4.45;100.00;99248.97;5096955;28;20050;-59
2023/12/20 00:34:15;;;;;;;0.50;0.50;;;;;;;4.42;100.00;99259.97;5089673;28;20055;-58
2023/12/20 00:36:42;;;;;;;0.50;0.50;;;;;;;4.45;100.00;99259.56;5080409;28;20366;-58
2023/12/20 00:39:09;;;;;;;0.50;0.50;;;;;;;4.42;100.00;99259.16;5073680;28;20528;-58
2023/12/20 00:41:38;;;;;;;0.40;0.40;;;;;;;4.49;100.00;99255.50;5097710;28;20166;-58
2023/12/20 00:44:05;;;;;;;0.43;0.43;;;;;;;4.55;100.00;99251.22;5077623;28;20040;-59
2023/12/20 00:46:32;;;;;;;0.50;0.50;;;;;;;4.57;100.00;99258.97;5095780;28;20333;-59
2023/12/20 00:48:59;;;;;;;0.52;0.52;;;;;;;4.59;100.00;99251.63;5085338;28;20945;-59
2023/12/20 00:51:26;;;;;;;0.40;0.40;;;;;;;4.63;100.00;99251.00;5094435;28;20092;-59
2023/12/20 00:53:54;;;;;;;0.50;0.50;;;;;;;4.63;100.00;99245.72;5089106;28;20489;-59
2023/12/20 00:56:21;;;;;;;0.50;0.50;;;;;;;4.56;100.00;99241.41;5093334;28;20048;-58
2023/12/20 00:58:51;;;;;;;0.50;0.50;;;;;;;4.66;100.00;99241.81;5087190;28;20044;-58
2023/12/20 01:01:17;;;;;;;0.50;0.50;;;;;;;4.64;100.00;99241.22;5089875;28;20055;-58
2023/12/20 01:03:44;;;;;;;0.32;0.32;;;;;;;4.63;100.00;99245.72;5085051;28;20048;-58
2023/12/20 01:06:11;;;;;;;0.57;0.57;;;;;;;4.70;100.00;99238.56;5083744;28;20048;-58
2023/12/20 01:08:38;;;;;;;0.50;0.50;;;;;;;4.79;100.00;99239.16;5075302;28;20159;-59
2023/12/20 01:11:06;;;;;;;0.47;0.47;;;;;;;4.91;100.00;99239.38;5049586;28;20056;-60
2023/12/20 01:13:32;;;;;;;0.43;0.43;;;;;;;4.92;100.00;99239.19;5048566;28;20159;-60
2023/12/20 01:16:01;;;;;;;0.47;0.47;;;;;;;4.92;100.00;99249.81;5050174;28;20131;-58
2023/12/20 01:18:28;;;;;;;0.40;0.40;;;;;;;4.99;100.00;99244.47;5047728;28;20044;-59
2023/12/20 01:20:55;;;;;;;0.30;0.30;;;;;;;4.86;100.00;99249.78;5060459;28;20116;-58
2023/12/20 01:23:22;;;;;;;0.45;0.45;;;;;;;4.73;100.00;99245.31;5043866;28;20343;-58
2023/12/20 01:25:49;;;;;;;0.40;0.40;;;;;;;4.68;100.00;99247.75;5054653;28;20047;-58
2023/12/20 01:28:17;;;;;;;0.50;0.50;;;;;;;4.63;100.00;99237.75;5056496;28;20143;-58
2023/12/20 01:30:44;;;;;;;0.43;0.43;;;;;;;4.59;100.00;99241.00;5048301;28;20052;-58
2023/12/20 01:33:12;;;;;;;0.43;0.43;;;;;;;4.54;100.00;99242.44;5046030;28;20205;-58
2023/12/20 01:35:39;;;;;;;0.50;0.50;;;;;;;4.52;100.00;99233.88;5046976;28;20136;-58
2023/12/20 01:38:06;;;;;;;0.50;0.50;;;;;;;4.48;100.00;99240.59;5041276;28;20055;-59
2023/12/20 01:40:33;;;;;;;0.50;0.50;;;;;;;4.42;100.00;99249.38;5047720;28;20053;-58
2023/12/20 01:43:01;;;;;;;0.50;0.50;;;;;;;4.52;100.00;99244.47;5048295;28;20425;-58
2023/12/20 01:45:28;;;;;;;0.50;0.50;;;;;;;4.54;100.00;99241.59;5051976;28;20040;-59
2023/12/20 01:47:55;;;;;;;0.68;0.68;;;;;;;4.64;100.00;99236.75;5047765;28;20397;-59
2023/12/20 01:50:24;;;;;;;0.40;0.40;;;;;;;4.58;100.00;99242.03;5051368;28;20219;-59
2023/12/20 01:52:52;;;;;;;0.55;0.55;;;;;;;4.47;100.00;99246.94;5048743;28;20606;-59
2023/12/20 01:55:19;;;;;;;0.50;0.50;;;;;;;4.52;100.00;99252.44;5050498;28;20045;-59
2023/12/20 01:57:47;;;;;;;0.50;0.50;;;;;;;4.56;100.00;99254.69;5046961;28;20045;-59
2023/12/20 02:00:15;;;;;;;0.50;0.50;;;;;;;4.48;100.00;99253.03;5047406;28;20047;-59
2023/12/20 02:02:42;;;;;;;0.47;0.47;;;;;;;4.41;100.00;99253.03;5048813;28;20092;-59
2023/12/20 02:05:09;;;;;;;0.32;0.32;;;;;;;4.39;100.00;99255.06;5072455;28;20580;-59
2023/12/20 02:07:37;;;;;;;0.50;0.50;;;;;;;4.41;100.00;99257.53;5049056;28;20127;-59
2023/12/20 02:10:05;;;;;;;0.40;0.40;;;;;;;4.42;100.00;99265.28;5076823;28;20130;-59
2023/12/20 02:12:32;;;;;;;0.40;0.40;;;;;;;4.33;100.00;99280.56;5097331;28;20409;-59
2023/12/20 02:14:59;;;;;;;0.60;0.60;;;;;;;4.47;100.00;99268.16;5101167;28;20445;-59
2023/12/20 02:17:26;;;;;;;0.43;0.43;;;;;;;4.47;100.00;99268.16;5075994;28;20087;-59
2023/12/20 02:19:53;;;;;;;0.40;0.40;;;;;;;4.37;100.00;99272.19;5073314;28;20050;-59
2023/12/20 02:22:22;;;;;;;0.60;0.60;;;;;;;4.42;100.00;99270.59;5094469;28;20058;-59
2023/12/20 02:24:49;;;;;;;0.50;0.50;;;;;;;4.56;100.00;99283.88;5097940;28;20028;-59
2023/12/20 02:27:17;;;;;;;0.40;0.40;;;;;;;4.59;100.00;99289.59;5089608;28;20054;-59
2023/12/20 02:29:44;;;;;;;0.40;0.40;;;;;;;4.56;100.00;99279.38;5091412;28;20044;-59
2023/12/20 02:32:11;;;;;;;0.35;0.35;;;;;;;4.64;100.00;99281.03;5095065;28;20131;-59
2023/12/20 02:34:38;;;;;;;0.50;0.50;;;;;;;4.73;100.00;99271.84;5097190;28;20067;-58
2023/12/20 02:37:05;;;;;;;0.40;0.40;;;;;;;4.68;100.00;99279.63;5083750;28;20044;-59
2023/12/20 02:39:34;;;;;;;0.50;0.50;;;;;;;4.71;100.00;99274.69;5095083;28;20145;-59
2023/12/20 02:42:01;;;;;;;0.40;0.40;;;;;;;4.72;100.00;99286.16;5094552;28;20216;-59
2023/12/20 02:44:28;;;;;;;0.40;0.40;;;;;;;4.65;100.00;99285.34;5091207;28;20043;-59
2023/12/20 02:46:55;;;;;;;0.50;0.50;;;;;;;4.75;100.00;99291.06;5077077;28;20051;-58
2023/12/20 02:49:23;;;;;;;0.40;0.40;;;;;;;4.78;100.00;99282.69;5093104;28;20537;-58
2023/12/20 02:51:50;;;;;;;0.40;0.40;;;;;;;4.73;100.00;99293.09;5096066;28;20725;-58
2023/12/20 02:54:17;;;;;;;0.50;0.50;;;;;;;4.72;100.00;99288.81;5092679;28;20426;-58
2023/12/20 02:56:45;;;;;;;0.40;0.40;;;;;;;4.69;100.00;99291.84;5093277;28;20054;-58
2023/12/20 02:59:12;;;;;;;0.50;0.50;;;;;;;4.71;100.00;99305.75;5090096;28;20192;-58
2023/12/20 03:01:42;;;;;;;0.47;0.47;;;;;;;4.74;100.00;99300.88;5095240;28;20097;-58
2023/12/20 03:04:09;;;;;;;0.45;0.45;;;;;;;4.70;100.00;99309.44;5090922;28;20578;-60
2023/12/20 03:06:36;;;;;;;0.40;0.40;;;;;;;4.63;100.00;99320.03;5088908;28;20065;-60
2023/12/20 03:09:04;;;;;;;0.40;0.40;;;;;;;4.66;100.00;99330.25;5071583;28;20511;-60
2023/12/20 03:11:31;;;;;;;0.40;0.40;;;;;;;4.71;100.00;99332.31;5095004;28;20071;-59
2023/12/20 03:13:59;;;;;;;0.40;0.40;;;;;;;4.66;100.00;99329.44;5085889;28;20039;-59
2023/12/20 03:16:28;;;;;;;0.40;0.40;;;;;;;4.62;100.00;99334.34;5090146;28;20083;-58
2023/12/20 03:18:54;;;;;;;0.35;0.35;;;;;;;4.48;100.00;99337.97;5085770;28;20047;-58
2023/12/20 03:21:21;;;;;;;0.50;0.50;;;;;;;4.32;100.00;99350.59;5086146;28;20186;-58
2023/12/20 03:23:48;;;;;;;0.50;0.50;;;;;;;4.27;100.00;99360.19;5096657;28;20568;-58
2023/12/20 03:26:15;;;;;;;0.40;0.40;;;;;;;4.14;100.00;99363.56;5090491;28;20040;-59
2023/12/20 03:28:44;;;;;;;0.40;0.40;;;;;;;4.04;100.00;99371.91;5095772;28;20047;-58
2023/12/20 03:31:13;;;;;;;0.50;0.50;;;;;;;4.02;100.00;99375.75;5087443;28;20745;-58
2023/12/20 03:33:40;;;;;;;0.40;0.40;;;;;;;3.93;100.00;99371.63;5088735;28;20537;-58
2023/12/20 03:36:07;;;;;;;0.47;0.47;;;;;;;3.78;100.00;99364.59;5089206;28;20324;-58
2023/12/20 03:38:34;;;;;;;0.30;0.30;;;;;;;3.63;100.00;99367.38;5083957;28;20094;-58
2023/12/20 03:41:01;;;;;;;0.47;0.47;;;;;;;3.67;100.00;99365.16;5085624;28;20036;-58
2023/12/20 03:43:28;;;;;;;0.43;0.43;;;;;;;3.62;100.00;99367.56;5092793;28;20659;-58
2023/12/20 03:45:55;;;;;;;0.50;0.50;;;;;;;3.66;100.00;99361.69;5092899;28;20193;-58
2023/12/20 03:48:23;;;;;;;0.55;0.55;;;;;;;3.74;100.00;99365.19;5093287;28;20130;-58
2023/12/20 03:50:51;;;;;;;0.40;0.40;;;;;;;3.87;100.00;99362.63;5090970;28;20055;-58
2023/12/20 03:53:18;;;;;;;0.50;0.50;;;;;;;3.85;100.00;99359.34;5095369;28;20371;-58
2023/12/20 03:55:45;;;;;;;0.40;0.40;;;;;;;3.83;100.00;99356.06;5092481;28;20056;-58
2023/12/20 03:58:14;;;;;;;0.43;0.43;;;;;;;3.83;100.00;99361.38;5084473;28;20135;-58
2023/12/20 04:00:41;;;;;;;0.40;0.40;;;;;;;3.79;100.00;99368.06;5088171;28;20479;-58
2023/12/20 04:03:08;;;;;;;0.47;0.47;;;;;;;3.75;100.00;99362.34;5095820;28;20074;-58
2023/12/20 04:05:36;;;;;;;0.50;0.50;;;;;;;3.87;100.00;99367.94;5093619;28;20062;-58
2023/12/20 04:08:04;;;;;;;0.60;0.60;;;;;;;3.80;100.00;99361.78;5090877;28;20150;-58
2023/12/20 04:10:31;;;;;;;0.50;0.50;;;;;;;3.84;100.00;99357.69;5094215;28;20059;-58
2023/12/20 04:12:58;;;;;;;0.50;0.50;;;;;;;3.84;100.00;99363.00;5094734;28;20089;-58
2023/12/20 04:15:25;;;;;;;0.57;0.57;;;;;;;3.83;100.00;99372.78;5089234;28;20051;-58
2023/12/20 04:17:52;;;;;;;0.40;0.40;;;;;;;3.78;100.00;99377.88;5090237;28;20048;-58
2023/12/20 04:20:19;;;;;;;0.55;0.55;;;;;;;3.82;100.00;99372.97;5073074;28;20043;-58
2023/12/20 04:22:48;;;;;;;0.43;0.43;;;;;;;3.91;100.00;99378.97;5096664;28;20044;-58
2023/12/20 04:25:15;;;;;;;0.40;0.40;;;;;;;3.91;100.00;99371.81;5093421;28;20075;-58
2023/12/20 04:27:42;;;;;;;0.40;0.40;;;;;;;3.92;100.00;99376.13;5090430;28;20626;-59
2023/12/20 04:30:10;;;;;;;0.55;0.55;;;;;;;3.86;100.00;99371.59;5094617;28;20725;-58
2023/12/20 04:32:37;;;;;;;0.50;0.50;;;;;;;3.89;100.00;99376.50;5095768;28;20412;-57
2023/12/20 04:35:04;;;;;;;0.50;0.50;;;;;;;3.94;100.00;99379.38;5088389;28;20139;-58
2023/12/20 04:37:31;;;;;;;0.40;0.40;;;;;;;3.95;100.00;99386.34;5088527;28;20169;-58
2023/12/20 04:40:00;;;;;;;0.40;0.40;;;;;;;4.00;100.00;99373.31;5089333;28;20705;-58
2023/12/20 04:42:27;;;;;;;0.60;0.60;;;;;;;4.03;100.00;99380.06;5085920;28;20046;-58
2023/12/20 04:44:54;;;;;;;0.45;0.45;;;;;;;4.16;100.00;99377.44;5092175;28;20040;-58
2023/12/20 04:47:21;;;;;;;0.50;0.50;;;;;;;4.16;100.00;99372.16;5072566;28;20564;-58
2023/12/20 04:49:48;;;;;;;0.40;0.40;;;;;;;4.25;100.00;99380.78;5058804;28;20046;-58
2023/12/20 04:52:15;;;;;;;0.50;0.50;;;;;;;4.23;100.00;99388.09;5086757;28;20044;-58
2023/12/20 04:54:42;;;;;;;0.50;0.50;;;;;;;4.20;100.00;99388.50;5091511;28;20181;-59
2023/12/20 04:57:11;;;;;;;0.50;0.50;;;;;;;4.26;100.00;99390.34;5087713;28;20207;-58
2023/12/20 04:59:38;;;;;;;0.40;0.40;;;;;;;4.21;100.00;99385.63;5094813;28;20050;-58
2023/12/20 05:02:06;;;;;;;0.50;0.50;;;;;;;4.27;100.00;99389.34;5085918;28;20259;-58
2023/12/20 05:04:33;;;;;;;0.55;0.55;;;;;;;4.20;100.00;99384.00;5094294;28;20036;-58
2023/12/20 05:07:01;;;;;;;0.40;0.40;;;;;;;4.33;100.00;99377.94;5070263;28;20148;-59
2023/12/20 05:09:28;;;;;;;0.50;0.50;;;;;;;4.32;100.00;99369.16;5093869;28;20135;-58
2023/12/20 05:11:55;;;;;;;0.40;0.40;;;;;;;4.31;100.00;99382.63;5092807;28;21079;-58
2023/12/20 05:14:24;;;;;;;0.50;0.50;;;;;;;4.29;100.00;99390.78;5081384;28;20036;-58
2023/12/20 05:16:51;;;;;;;0.40;0.40;;;;;;;4.31;100.00;99383.44;5090844;28;20446;-58
2023/12/20 05:19:18;;;;;;;0.50;0.50;;;;;;;4.26;100.00;99387.69;5092566;28;20430;-58
2023/12/20 05:21:45;;;;;;;0.38;0.38;;;;;;;4.32;100.00;99393.06;5087900;28;20059;-58
2023/12/20 05:24:12;;;;;;;0.55;0.55;;;;;;;4.29;100.00;99387.31;5091815;28;20053;-63
2023/12/20 05:26:39;;;;;;;0.60;0.60;;;;;;;4.30;100.00;99394.25;5060689;28;20054;-58
2023/12/20 05:29:06;;;;;;;0.40;0.40;;;;;;;4.36;100.00;99392.66;5093331;28;20504;-59
2023/12/20 05:31:35;;;;;;;0.50;0.50;;;;;;;4.36;100.00;99384.69;5092517;28;20449;-58
2023/12/20 05:34:02;;;;;;;0.38;0.38;;;;;;;4.35;100.00;99381.22;5093737;28;20091;-58
2023/12/20 05:36:29;;;;;;;0.45;0.45;;;;;;;4.41;100.00;99382.25;5098513;28;20039;-58
2023/12/20 05:38:56;;;;;;;0.40;0.40;;;;;;;4.48;100.00;99381.25;5097754;28;20871;-58
2023/12/20 05:41:23;;;;;;;0.50;0.50;;;;;;;4.31;100.00;99383.44;5081464;28;20055;-58
2023/12/20 05:43:50;;;;;;;0.40;0.40;;;;;;;4.35;100.00;99381.22;5097481;28;20046;-58
2023/12/20 05:46:17;;;;;;;0.50;0.50;;;;;;;4.24;100.00;99382.63;5091762;28;20748;-58
2023/12/20 05:48:47;;;;;;;0.40;0.40;;;;;;;4.24;100.00;99379.13;5093395;28;20047;-59
2023/12/20 05:51:14;;;;;;;0.45;0.45;;;;;;;4.23;100.00;99383.59;5097985;28;20047;-58
2023/12/20 05:53:42;;;;;;;0.40;0.40;;;;;;;4.20;100.00;99369.94;5092416;28;20432;-58
2023/12/20 05:56:09;;;;;;;0.50;0.50;;;;;;;4.24;100.00;99379.97;5093778;28;20066;-58
2023/12/20 05:58:36;;;;;;;0.30;0.30;;;;;;;4.26;100.00;99387.69;5090108;28;20042;-59
2023/12/20 06:01:05;;;;;;;0.45;0.45;;;;;;;4.26;100.00;99387.69;5094468;28;20044;-58
2023/12/20 06:03:33;;;;;;;0.40;0.40;;;;;;;4.17;100.00;99394.19;5094547;28;20047;-58
2023/12/20 06:06:05;;;;;;;0.30;0.30;;;;;;;4.15;100.00;99401.53;5096151;28;20835;-59
2023/12/20 06:08:32;;;;;;;0.60;0.60;;;;;;;4.06;100.00;99407.00;5092455;28;20083;-58
2023/12/20 06:11:00;;;;;;;0.60;0.60;;;;;;;3.94;100.00;99397.94;5095964;28;20821;-58
2023/12/20 06:13:27;;;;;;;0.60;0.60;;;;;;;3.68;100.00;99393.31;5096589;28;20101;-58
2023/12/20 06:15:55;;;;;;;0.50;0.50;;;;;;;3.67;100.00;99392.50;5092632;28;20066;-58
2023/12/20 06:18:24;;;;;;;0.40;0.40;;;;;;;3.64;100.00;99406.13;5092678;28;20039;-58
2023/12/20 06:20:51;;;;;;;0.50;0.50;;;;;;;3.58;100.00;99406.88;5084830;28;20140;-58
2023/12/20 06:23:20;;;;;;;0.30;0.30;;;;;;;3.54;100.00;99407.47;5090831;28;20143;-58
2023/12/20 06:25:47;;;;;;;0.50;0.50;;;;;;;3.73;100.00;99403.31;5094024;28;20085;-58
2023/12/20 06:28:15;;;;;;;0.60;0.60;;;;;;;3.71;100.00;99394.75;5097399;28;20509;-58
2023/12/20 06:30:42;;;;;;;0.50;0.50;;;;;;;3.67;100.00;99397.78;5092785;28;20055;-58
2023/12/20 06:33:11;;;;;;;0.57;0.57;;;;;;;3.72;100.00;99402.53;5084471;28;20036;-60
2023/12/20 06:35:38;;;;;;;0.50;0.50;;;;;;;3.71;100.00;99405.34;5095542;28;20039;-58
2023/12/20 06:38:05;;;;;;;0.60;0.60;;;;;;;3.78;100.00;99400.91;5090974;28;20499;-58
2023/12/20 06:40:33;;;;;;;0.50;0.50;;;;;;;3.79;100.00;99406.00;5091737;28;20851;-58
2023/12/20 06:43:00;;;;;;;0.50;0.50;;;;;;;3.75;100.00;99401.31;5091705;28;20130;-57
2023/12/20 06:45:28;;;;;;;0.40;0.40;;;;;;;3.57;100.00;99407.06;5088940;28;20046;-58
2023/12/20 06:47:55;;;;;;;0.70;0.70;;;;;;;3.41;100.00;99408.19;5096498;28;20039;-58
2023/12/20 06:50:22;;;;;;;0.60;0.60;;;;;;;3.39;100.00;99413.66;5090091;28;20032;-58
2023/12/20 06:52:49;;;;;;;0.60;0.60;;;;;;;3.43;100.00;99408.81;5092859;28;20040;-58
2023/12/20 06:55:17;;;;;;;0.50;0.50;;;;;;;3.50;100.00;99403.56;5093239;28;20052;-58
2023/12/20 06:57:45;;;;;;;0.60;0.60;;;;;;;3.53;100.00;99403.19;5090532;28;20641;-58
2023/12/20 07:00:13;;;;;;;0.50;0.50;;;;;;;3.60;100.00;99404.88;5077951;28;20043;-60
2023/12/20 07:02:40;;;;;;;0.50;0.50;;;;;;;3.58;100.00;99406.06;5095785;28;20142;-58
2023/12/20 07:05:08;;;;;;;0.50;0.50;;;;;;;3.65;100.00;99402.47;5095690;28;20035;-58
2023/12/20 07:07:35;;;;;;;0.40;0.40;;;;;;;3.82;100.00;99415.41;5097309;28;20047;-58
2023/12/20 07:10:02;;;;;;;0.50;0.50;;;;;;;3.80;100.00;99414.81;5071048;28;20052;-58
2023/12/20 07:12:29;;;;;;;0.50;0.50;;;;;;;3.89;100.00;99413.63;5092381;28;20179;-58
2023/12/20 07:14:58;;;;;;;0.35;0.35;;;;;;;3.84;100.00;99414.22;5085594;28;20484;-59
2023/12/20 07:17:25;;;;;;;0.50;0.50;;;;;;;3.89;100.00;99426.88;5091271;28;20131;-58
2023/12/20 07:19:52;;;;;;;0.50;0.50;;;;;;;3.93;100.00;99420.19;5099235;28;20263;-58
2023/12/20 07:22:19;;;;;;;0.50;0.50;;;;;;;4.04;100.00;99424.97;5090992;28;20040;-58
2023/12/20 07:24:46;;;;;;;0.50;0.50;;;;;;;3.88;100.00;99418.09;5091428;28;20055;-58
2023/12/20 07:27:13;;;;;;;0.50;0.50;;;;;;;3.99;100.00;99416.75;5092211;28;20046;-58
2023/12/20 07:29:40;;;;;;;0.40;0.40;;;;;;;4.05;100.00;99423.94;5092129;28;20032;-58
2023/12/20 07:32:11;;;;;;;0.50;0.50;;;;;;;4.06;100.00;99425.56;5089290;28;20040;-59
2023/12/20 07:34:38;;;;;;;0.60;0.60;;;;;;;3.89;100.00;99419.75;5095431;28;20067;-59
2023/12/20 07:37:05;;;;;;;0.50;0.50;;;;;;;3.81;100.00;99424.38;5073698;28;20046;-59
2023/12/20 07:39:32;;;;;;;0.43;0.43;;;;;;;3.73;100.00;99425.34;5095513;28;20043;-58
2023/12/20 07:41:59;;;;;;;0.35;0.35;;;;;;;3.69;100.00;99418.78;5093798;28;20032;-58
2023/12/20 07:44:26;;;;;;;0.40;0.40;;;;;;;3.64;100.00;99416.75;5092983;28;20047;-59
2023/12/20 07:46:53;;;;;;;0.60;0.60;;;;;;;3.62;100.00;99428.50;5092214;28;21631;-58
2023/12/20 07:49:21;;;;;;;0.60;0.60;;;;;;;3.72;100.00;99415.78;5093836;28;20632;-59
2023/12/20 07:51:48;;;;;;;0.50;0.50;;;;;;;3.58;100.00;99428.09;5087670;28;20484;-59
2023/12/20 07:54:15;;;;;;;0.50;0.50;;;;;;;3.42;100.00;99431.84;5090490;28;20051;-59
2023/12/20 07:56:43;;;;;;;0.47;0.47;;;;;;;3.40;100.00;99441.00;5093340;28;20067;-59
2023/12/20 07:59:10;;;;;;;0.47;0.47;;;;;;;3.42;100.00;99439.78;5087093;28;20513;-58
2023/12/20 08:01:37;;;;;;;0.50;0.50;;;;;;;3.29;100.00;99441.50;5092936;28;20052;-59
2023/12/20 08:04:04;;;;;;;0.60;0.60;;;;;;;3.27;100.00;99446.16;5096427;28;20053;-59
2023/12/20 08:06:33;;;;;;;0.60;0.60;;;;;;;3.25;100.00;99443.72;5075545;28;20064;-59
2023/12/20 08:09:00;;;;;;;0.40;0.40;;;;;;;3.19;100.00;99439.97;5097068;28;20434;-59
2023/12/20 08:11:27;;;;;;;0.70;0.70;;;;;;;3.26;100.00;99439.22;5095480;28;20204;-59
2023/12/20 08:13:54;;;;;;;0.50;0.50;;;;;;;3.32;100.00;99446.41;5070602;28;20059;-60
2023/12/20 08:16:22;;;;;;;0.60;0.60;;;;;;;3.29;100.00;99449.44;5093529;28;20075;-60
2023/12/20 08:18:49;;;;;;;0.40;0.40;;;;;;;3.33;100.00;99450.72;5093184;28;20043;-60
2023/12/20 08:21:16;;;;;;;0.60;0.60;;;;;;;3.30;100.00;99453.75;5089335;28;20075;-59
2023/12/20 08:23:45;;;;;;;0.50;0.50;;;;;;;3.32;100.00;99449.06;5091466;28;20043;-59
2023/12/20 08:26:12;;;;;;;0.70;0.70;;;;;;;3.35;100.00;99448.69;5089087;28;20055;-59
2023/12/20 08:28:39;;;;;;;0.50;0.50;;;;;;;3.40;100.00;99446.31;5091228;28;20254;-59
2023/12/20 08:31:08;;;;;;;0.60;0.60;;;;;;;3.52;100.00;99460.69;5090938;28;20054;-59
2023/12/20 08:33:36;;;;;;;0.70;0.70;;;;;;;3.60;100.00;99463.19;5091103;28;20135;-59
2023/12/20 08:36:05;;;;;;;0.50;0.50;;;;;;;3.67;100.00;99458.75;5091158;28;20463;-58
2023/12/20 08:38:32;;;;;;;0.50;0.50;;;;;;;3.90;100.00;99460.34;5090099;28;20052;-58
2023/12/20 08:41:01;;;;;;;0.50;0.50;;;;;;;4.12;100.00;99450.50;5083698;28;20044;-59
2023/12/20 08:43:29;;;;;;;0.70;0.70;;;;;;;4.22;100.00;99452.78;5089344;28;20063;-59
2023/12/20 08:45:56;;;;;;;0.50;0.50;;;;;;;4.37;100.00;99453.50;5086603;28;20044;-58
2023/12/20 08:48:25;;;;;;;0.50;0.50;;;;;;;4.50;100.00;99455.41;5089694;28;20154;-59
2023/12/20 08:50:52;;;;;;;0.40;0.40;;;;;;;4.57;100.00;99452.75;5088880;28;20088;-59
2023/12/20 08:53:19;;;;;;;0.30;0.30;;;;;;;4.66;100.00;99451.56;5083195;28;20402;-59
2023/12/20 08:55:47;;;;;;;0.43;0.43;;;;;;;4.79;100.00;99451.59;5091646;28;20564;-59
2023/12/20 08:58:19;;;;;;;0.40;0.40;;;;;;;4.87;100.00;99454.09;5095377;28;20406;-59
2023/12/20 09:00:46;;;;;;;0.50;0.50;;;;;;;4.85;100.00;99453.47;5091416;28;20093;-59
2023/12/20 09:03:13;;;;;;;0.50;0.50;;;;;;;4.99;100.00;99449.00;5052316;28;20116;-59
2023/12/20 09:05:40;;;;;;;0.40;0.40;;;;;;;5.13;100.00;99452.53;5091147;28;20135;-59
2023/12/20 09:08:10;;;;;;;0.43;0.43;;;;;;;5.19;100.00;99446.41;5091168;28;20130;-58
2023/12/20 09:10:37;;;;;;;0.40;0.40;;;;;;;5.35;100.00;99446.03;5091443;28;20098;-58
2023/12/20 09:13:04;;;;;;;0.40;0.40;;;;;;;5.40;100.00;99443.56;5094021;28;20075;-58
2023/12/20 09:15:34;;;;;;;0.40;0.40;;;;;;;5.62;100.00;99438.06;5098958;28;20126;-58
2023/12/20 09:18:01;;;;;;;0.50;0.50;;;;;;;5.55;100.00;99429.25;5065267;28;20055;-58
2023/12/20 09:20:28;;;;;;;0.35;0.35;;;;;;;5.45;100.00;99437.66;5093432;28;20046;-58
2023/12/20 09:22:55;;;;;;;0.50;0.50;;;;;;;5.57;100.00;99440.53;5095461;28;20077;-58
2023/12/20 09:25:23;;;;;;;0.50;0.50;;;;;;;5.59;100.00;99435.78;5099120;28;20507;-59
2023/12/20 09:27:50;;;;;;;0.40;0.40;;;;;;;5.55;100.00;99451.34;5098616;28;20036;-58
2023/12/20 09:30:23;;;;;;;0.30;0.30;;;;;;;5.70;100.00;99448.47;5098894;28;20365;-59
2023/12/20 09:32:51;;;;;;;0.50;0.50;;;;;;;5.84;100.00;99450.13;5092752;28;20638;-59
2023/12/20 09:35:18;;;;;;;0.50;0.50;;;;;;;5.99;100.00;99444.63;5077357;28;20130;-58
2023/12/20 09:37:46;;;;;;;0.50;0.50;;;;;;;5.93;100.00;99452.56;5076274;28;20804;-61
2023/12/20 09:40:14;;;;;;;0.50;0.50;;;;;;;5.95;100.00;99463.84;5094832;28;20040;-60
2023/12/20 09:42:44;;;;;;;0.50;0.50;;;;;;;6.08;100.00;99471.00;5092866;28;20051;-59
2023/12/20 09:45:11;;;;;;;;;;;;;;;5.97;100.00;99464.47;5096927;28;20154;-59
2023/12/20 09:47:38;;;;;;;0.30;0.30;;;;;;;5.87;100.00;99458.72;5089578;28;19931;-60
2023/12/20 09:50:08;;;;;;;0.40;0.40;;;;;;;5.87;100.00;99464.03;5099406;28;20126;-60
2023/12/20 09:52:35;;;;;;;0.40;0.40;;;;;;;5.79;100.00;99463.22;5090942;28;20049;-58
2023/12/20 09:55:04;;;;;;;0.30;0.30;;;;;;;6.01;100.00;99460.34;5094604;28;20674;-59
2023/12/20 09:57:31;;;;;;;0.43;0.43;;;;;;;7.24;99.06;99448.78;5092170;28;20466;-58
2023/12/20 09:59:58;;;;;;;0.40;0.40;;;;;;;7.68;95.52;99452.38;5093775;28;20522;-58
2023/12/20 10:02:27;;;;;;;0.50;0.50;;;;;;;7.95;92.85;99448.44;5092003;28;20121;-60
2023/12/20 10:04:55;;;;;;;0.50;0.50;;;;;;;8.12;90.51;99446.03;5096414;28;21311;-60
2023/12/20 10:07:23;;;;;;;0.40;0.40;;;;;;;8.27;89.96;99447.53;5094910;28;20104;-60
2023/12/20 10:09:50;;;;;;;0.30;0.30;;;;;;;7.84;89.20;99435.84;5091507;28;20043;-60
2023/12/20 10:12:17;;;;;;;0.40;0.40;;;;;;;7.89;88.88;99452.00;5097198;28;20489;-60
2023/12/20 10:14:44;;;;;;;0.40;0.40;;;;;;;7.75;91.11;99440.63;5071502;28;20885;-57
2023/12/20 10:17:12;;;;;;;0.30;0.30;;;;;;;7.30;93.98;99439.94;5092606;28;20262;-58
2023/12/20 10:19:39;;;;;;;0.40;0.40;;;;;;;7.16;96.22;99435.72;5093491;28;20233;-60
2023/12/20 10:22:06;;;;;;;0.25;0.25;;;;;;;6.80;98.46;99437.19;5096687;28;20052;-60
2023/12/20 10:24:34;;;;;;;0.30;0.30;;;;;;;6.66;100.00;99434.59;5077908;28;20051;-60
2023/12/20 10:27:05;;;;;;;0.30;0.30;;;;;;;6.58;100.00;99426.81;5094760;28;20039;-60
2023/12/20 10:29:35;;;;;;;0.30;0.30;;;;;;;6.50;100.00;99431.56;5076795;28;20226;-59
2023/12/20 10:32:22;;;;;;;0.38;0.38;;;;;;;6.36;100.00;99428.94;5094303;28;20044;-59
2023/12/20 10:34:49;;;;;;;0.40;0.40;;;;;;;6.21;100.00;99431.03;5071623;28;20056;-58
2023/12/20 10:37:16;;;;;;;0.30;0.30;;;;;;;6.19;100.00;99425.94;5091827;28;20497;-60
2023/12/20 10:39:45;;;;;;;0.45;0.45;;;;;;;6.09;100.00;99430.88;5092592;28;20535;-60
2023/12/20 10:42:12;;;;;;;0.40;0.40;;;;;;;5.96;100.00;99425.56;5089817;28;20060;-57
2023/12/20 10:44:39;;;;;;;0.40;0.40;;;;;;;5.88;100.00;99423.09;5094905;28;20035;-60
2023/12/20 10:47:06;;;;;;;0.32;0.32;;;;;;;5.94;100.00;99424.94;5070524;28;20048;-58
2023/12/20 10:49:34;;;;;;;0.50;0.50;;;;;;;6.01;100.00;99423.91;5075572;28;20142;-58
2023/12/20 10:52:02;;;;;;;0.30;0.30;;;;;;;6.20;100.00;99416.91;5091930;28;20078;-58
2023/12/20 10:54:29;;;;;;;0.40;0.40;;;;;;;6.02;100.00;99419.44;5094605;28;20047;-58
2023/12/20 10:56:59;;;;;;;0.32;0.32;;;;;;;5.95;100.00;99414.13;5087280;28;20044;-58
2023/12/20 10:59:26;;;;;;;0.40;0.40;;;;;;;6.01;100.00;99409.78;5087141;28;20044;-58
2023/12/20 11:01:54;;;;;;;0.40;0.40;;;;;;;6.07;100.00;99416.16;5072227;28;20044;-58
2023/12/20 11:04:23;;;;;;;0.40;0.40;;;;;;;5.99;100.00;99403.84;5089572;28;20056;-58
2023/12/20 11:06:52;;;;;;;0.40;0.40;;;;;;;6.04;100.00;99406.72;5092642;28;20040;-58
2023/12/20 11:09:25;;;;;;;0.45;0.45;;;;;;;6.00;100.00;99411.66;5096201;28;20577;-58
2023/12/20 11:12:05;;;;;;;0.30;0.30;;;;;;;5.94;100.00;99412.50;5090035;28;20044;-58
2023/12/20 11:14:34;;;;;;;0.30;0.30;;;;;;;5.91;100.00;99417.34;5094341;28;20043;-58
2023/12/20 11:17:08;;;;;;;0.30;0.30;;;;;;;6.16;100.00;99409.56;5089669;28;20069;-58
2023/12/20 11:19:38;;;;;;;0.40;0.40;;;;;;;6.02;100.00;99409.59;5089050;28;20054;-59
2023/12/20 11:22:06;;;;;;;0.43;0.43;;;;;;;6.04;100.00;99412.03;5093674;28;20075;-60
2023/12/20 11:24:33;;;;;;;0.40;0.40;;;;;;;6.12;100.00;99393.19;5094981;28;20557;-59
2023/12/20 11:27:02;;;;;;;0.40;0.40;;;;;;;6.20;100.00;99384.16;5094158;28;20063;-59
2023/12/20 11:29:34;;;;;;;0.40;0.40;;;;;;;6.13;100.00;99372.72;5085450;28;20048;-59
2023/12/20 11:32:03;;;;;;;0.30;0.30;;;;;;;6.07;100.00;99374.38;5093453;28;20134;-59
2023/12/20 11:34:33;;;;;;;0.40;0.40;;;;;;;6.14;100.00;99374.34;5089694;28;20044;-59
2023/12/20 11:37:00;;;;;;;0.40;0.40;;;;;;;6.09;100.00;99382.97;5088200;28;20078;-59